»·PEaware :: N41598 KSDM-KCRQ

N41598 :: KSDM-KCRQ

FLIGHT INFORMATION

Flight Status: Arrived
Operator: Privately registered:
United States
More flights under this callsign
Pilot: Ireneusz M. (9891)
Aircraft: PIPER PA-28R-201 ARROW
(P28R)
More flights by this aircraft type
Origin: KSDM Brown Mun
United States
Destination: KCRQ McClellan-Palomar
United States
More flights between these airports :: More routes between these airports
Route: OCN
File this flight plan on PilotEdge
Remarks: KCRQ ILS RWY 24
Altitude:
(Current/Filed)
6,000ft
Speed:
(Current/Filed)
140kts
Departed: 06-Jul-17 11:36 AM
Arrived: 06-Jul-17 12:14 PM
Distance/Time
Traveled:
37nm/0:38
Distance/Time
To Go:
Arrived

Flight Plot

Page will automatically refresh every two minutes.


Map Options




Map Legend


Flown Route
Filed Route
Departure Airport
Arrival Airport
Navaid (VOR, NDB)
Fix

Horizontal Profiles

Position Reports

Time Latitude Longitude Heading Altitude Ground
Speed
06-Jul-17 11:04 32.570615 -116.984975 282 519ft 0kts
06-Jul-17 11:05 32.570615 -116.984975 282 519ft 0kts
06-Jul-17 11:06 32.570615 -116.984975 282 519ft 0kts
06-Jul-17 11:07 32.570615 -116.984975 282 519ft 0kts
06-Jul-17 11:08 32.570615 -116.984975 282 519ft 0kts
06-Jul-17 11:09 32.570615 -116.984975 282 519ft 0kts
06-Jul-17 11:10 32.570615 -116.984975 282 519ft 0kts
06-Jul-17 11:11 32.570615 -116.984975 282 519ft 0kts
06-Jul-17 11:12 32.570615 -116.984975 282 519ft 0kts
06-Jul-17 11:13 32.570615 -116.984975 282 519ft 0kts
06-Jul-17 11:14 32.570615 -116.984975 282 519ft 0kts
06-Jul-17 11:15 32.570615 -116.984975 282 519ft 0kts
06-Jul-17 11:16 32.570615 -116.984975 282 519ft 0kts
06-Jul-17 11:17 32.570615 -116.984975 282 519ft 0kts
06-Jul-17 11:18 32.570615 -116.984975 282 519ft 0kts
06-Jul-17 11:19 32.570615 -116.984975 282 519ft 0kts
06-Jul-17 11:20 32.570615 -116.984975 282 519ft 0kts
06-Jul-17 11:21 32.570615 -116.984975 282 519ft 0kts
06-Jul-17 11:22 32.570615 -116.984975 282 519ft 0kts
06-Jul-17 11:23 32.570615 -116.984975 282 519ft 0kts
06-Jul-17 11:24 32.570615 -116.984975 282 519ft 0kts
06-Jul-17 11:25 32.570615 -116.984975 282 519ft 0kts
06-Jul-17 11:26 32.570615 -116.984975 282 519ft 0kts
06-Jul-17 11:27 32.570414 -116.981432 94 515ft 21kts
06-Jul-17 11:28 32.569916 -116.975580 97 509ft 25kts
06-Jul-17 11:29 32.569402 -116.969044 80 505ft 17kts
06-Jul-17 11:30 32.570554 -116.968338 2 507ft 0kts
06-Jul-17 11:31 32.570554 -116.968338 2 507ft 0kts
06-Jul-17 11:32 32.570554 -116.968338 2 507ft 0kts
06-Jul-17 11:33 32.570554 -116.968338 2 507ft 0kts
06-Jul-17 11:34 32.570554 -116.968338 2 507ft 0kts
06-Jul-17 11:35 32.570554 -116.968338 2 507ft 0kts
06-Jul-17 11:36 32.570554 -116.968338 2 507ft 0kts
06-Jul-17 11:37 32.570554 -116.968338 2 507ft 0kts
06-Jul-17 11:38 32.570554 -116.968338 2 507ft 0kts
06-Jul-17 11:39 32.572277 -116.975154 276 534ft 83kts
06-Jul-17 11:40 32.576758 -117.000233 293 1540ft 96kts
06-Jul-17 11:41 32.586598 -117.029998 291 2695ft 108kts
06-Jul-17 11:42 32.596130 -117.056448 293 3751ft 103kts
06-Jul-17 11:43 32.604017 -117.076597 290 4547ft 99kts
06-Jul-17 11:44 32.613156 -117.100967 291 5379ft 103kts
06-Jul-17 11:45 32.623255 -117.126884 291 5948ft 125kts
06-Jul-17 11:46 32.636701 -117.161720 292 6013ft 151kts
06-Jul-17 11:47 32.651716 -117.200473 291 5979ft 156kts
06-Jul-17 11:48 32.680819 -117.218416 4 6060ft 164kts
06-Jul-17 11:49 32.718364 -117.217329 353 6037ft 166kts
06-Jul-17 11:50 32.755249 -117.223492 353 5960ft 169kts
06-Jul-17 11:51 32.792803 -117.228306 340 5986ft 166kts
06-Jul-17 11:52 32.827471 -117.241490 341 5981ft 164kts
06-Jul-17 11:53 32.864065 -117.256949 335 5991ft 165kts
06-Jul-17 11:54 32.898270 -117.273560 339 5989ft 165kts
06-Jul-17 11:55 32.935941 -117.288946 340 5988ft 165kts
06-Jul-17 11:56 32.971013 -117.304155 340 5988ft 165kts
06-Jul-17 11:57 33.008049 -117.319546 344 5984ft 165kts
06-Jul-17 11:58 33.032140 -117.284136 75 5041ft 190kts
06-Jul-17 11:59 33.045969 -117.229483 72 4029ft 174kts
06-Jul-17 12:00 33.059192 -117.180358 71 3989ft 166kts
06-Jul-17 12:01 33.071882 -117.133876 71 3982ft 162kts
06-Jul-17 12:02 33.084848 -117.085991 71 3985ft 160kts
06-Jul-17 12:03 33.097724 -117.037483 71 4006ft 159kts
06-Jul-17 12:04 33.109985 -116.990697 71 4010ft 158kts
06-Jul-17 12:05 33.130043 -116.950517 12 4042ft 152kts
06-Jul-17 12:06 33.168166 -116.958914 314 3993ft 132kts
06-Jul-17 12:07 33.173355 -116.995710 272 3448ft 118kts
06-Jul-17 12:08 33.169868 -117.029750 262 3299ft 112kts
06-Jul-17 12:09 33.164007 -117.064201 256 2588ft 115kts
06-Jul-17 12:10 33.156866 -117.098855 263 2310ft 109kts
06-Jul-17 12:11 33.152227 -117.131987 257 2301ft 106kts
06-Jul-17 12:12 33.146634 -117.163292 255 2288ft 99kts
06-Jul-17 12:13 33.142184 -117.193824 259 1770ft 95kts
06-Jul-17 12:14 33.137689 -117.221658 258 1269ft 88kts
06-Jul-17 12:15 33.133400 -117.248854 259 772ft 89kts
06-Jul-17 12:16 33.129236 -117.274136 258 312ft 64kts
06-Jul-17 12:17 33.127432 -117.280173 255 310ft 0kts
06-Jul-17 12:18 33.127105 -117.280307 1 309ft 0kts
06-Jul-17 12:19 33.127105 -117.280307 1 309ft 0kts
06-Jul-17 12:20 33.127105 -117.280307 1 309ft 0kts
06-Jul-17 12:21 33.127105 -117.280307 1 309ft 0kts

Navigation Log

Ident Type
Flight plan parsing failed, navigation log unavailable